Niagara, ND

8:49 AM CDT on May 26, 2015 (GMT -0500)
Larimore | | Change Station
CLOSE
Current Station
Personal Weather Station
Location: Larimore, ND
Elevation: 1125 ft
Nearby Weather Stations

Elev 1125 ft 47.91 °N, 97.63 °W | Updated 13 minutes ago

Clear
Clear
70.0 °F
Feels Like 70.0 °F
N
1.6
Wind Variable Wind from SW

Today
High -- | Low -- °F
--% Chance of Precip.
Yesterday
High -- | Low -- °F
Precip. -- in
5:40 AM 9:16 PM
First Quarter, 58% visible
Pressure 29.83 in
Visibility 10.0 miles
Clouds Clear
Dew Point 57 °F
Humidity 63%
Rainfall 0.00 in
Snow Depth Not available.
UV 2 out of 12
Pollen 8.90 out of 12
Air Quality Not available.
Flu Activity Sporadic
METAR KRDR 261258Z AUTO 21008KT 10SM CLR 16/12 A2981 RMK AO2 SLP099 T01570118

More Conditions Fewer Conditions

Pressure 29.83 in
Visibility 10.0 miles
Clouds Clear
Dew Point 57 °F
Humidity 63%
Rainfall 0.00 in
Snow Depth Not available.
UV 2 out of 12
Pollen 8.90 out of 12
Air Quality Not available.
Flu Activity Sporadic
METAR KRDR 261258Z AUTO 21008KT 10SM CLR 16/12 A2981 RMK AO2 SLP099 T01570118

More Conditions Fewer Conditions

10-Day Weather Forecast

Almanac

Astronomy

May. 26, 2015 Rise Set
Actual Time
Civil Twilight
Nautical Twilight
Astronomical Twilight
Moon
Length of Visible Light
Length of Day
Tomorrow will be .
, % of the Moon is Illuminated

Today's Extremes

State Highs State Lows

Community

WunderPhotos

Upload Photos

1,824,342 photos uploaded!

WunderBlogs® & News

Nearby

Air Quality

  Air Quality AQ Index Pollutant
Not available.

Snow Depth

Station Depth Elevation

Earthquake Activity

City Distance Mag. Time & Date
Minimum magnitude displayed is 2.5.

Coastal Water Temperatures

Place Temperature

Stations

Nearby Weather Stations

Station Location Temp. Windchill Dew Point Humidity Wind Precip. Elev Updated Type